EST,Max TemperatureF,Mean TemperatureF,Min TemperatureF,Max Dew PointF,MeanDew PointF,Min DewpointF,Max Humidity, Mean Humidity, Min Humidity, Max Sea Level PressureIn, Mean Sea Level PressureIn, Min Sea Level PressureIn, Max VisibilityMiles, Mean VisibilityMiles, Min VisibilityMiles, Max Wind SpeedMPH, Mean Wind SpeedMPH, Max Gust SpeedMPH,PrecipitationIn, CloudCover, Events, WindDirDegrees
2013-2-1,17,14,11,13,9,5,86,77,67,30.11,30.04,29.85,10,3,0,22,16,29,0.00,8,Snow,275
2013-2-2,15,13,11,10,5,2,82,70,57,30.07,30.03,30.00,10,8,2,15,9,22,0.00,7,Snow,323
2013-2-3,18,14,9,14,8,2,90,75,57,30.00,29.88,29.80,10,5,0,22,9,29,0.00,8,Snow,254
2013-2-4,17,14,12,12,7,3,88,71,59,29.97,29.94,29.91,10,7,0,15,8,20,0.00,8,Snow,273
2013-2-5,23,16,9,20,12,5,87,79,64,30.00,29.82,29.68,10,7,1,21,9,29,0.00,7,Snow,221
2013-2-6,26,20,16,22,14,9,96,74,58,30.23,30.17,30.01,10,8,1,17,9,25,0.00,8,Snow,225
2013-2-7,28,24,21,27,23,19,99,94,90,30.20,30.15,30.09,10,3,1,12,7,18,0.00,8,Snow,93
2013-2-8,22,13,4,19,14,2,91,82,68,30.39,30.26,30.10,10,9,3,14,10,21,0.00,4,Snow,26
2013-2-9,29,12,-6,16,5,-10,89,73,51,30.41,30.33,30.19,10,10,7,9,4,,0.00,1,,142
2013-2-10,37,28,20,35,23,15,96,78,62,30.20,29.93,29.51,10,9,2,18,10,24,0.00,6,Rain-Snow,129
2013-2-11,40,33,27,37,32,20,97,90,72,29.79,29.48,29.36,10,7,1,26,13,33,0.00,8,Rain-Snow,224
2013-2-12,28,27,26,23,20,17,81,76,68,29.97,29.90,29.80,10,9,4,23,16,29,0.00,8,Snow,264
2013-2-13,36,32,28,29,27,23,92,83,75,29.83,29.72,29.67,10,8,7,14,7,18,0.00,8,,212
2013-2-14,33,28,24,32,29,18,100,93,74,29.86,29.69,29.60,10,3,0,24,7,33,0.00,8,Fog-Rain-Snow,215
2013-2-15,24,20,17,18,12,5,85,69,57,30.12,30.03,29.87,10,8,0,20,15,32,0.00,8,Snow,322
2013-2-16,18,14,8,13,8,3,92,73,56,30.16,30.09,30.04,10,8,1,14,6,18,0.00,7,Snow,30
2013-2-17,20,12,4,11,7,0,86,77,60,30.19,30.14,30.10,10,9,2,12,3,17,0.00,8,Snow,136
2013-2-18,38,27,16,34,19,9,96,66,54,30.09,29.78,29.42,10,9,2,17,10,22,0.00,6,Rain-Snow,137
2013-2-19,39,28,17,38,25,12,99,90,77,29.84,29.46,29.19,10,3,0,34,18,44,0.00,8,Rain-Snow,270
2013-2-20,21,17,13,15,9,4,86,73,65,30.30,30.15,29.88,10,6,1,25,19,37,0.00,8,Snow,333
2013-2-21,20,18,15,15,12,8,89,78,66,30.44,30.38,30.29,10,9,5,21,12,28,0.00,5,Snow,39
2013-2-22,29,24,18,27,23,16,96,90,81,30.30,30.03,29.82,10,7,1,15,8,20,0.00,8,Snow,108
2013-2-23,31,28,25,28,26,23,99,92,78,29.84,29.80,29.76,10,4,1,10,3,,0.00,8,Snow,232
2013-2-24,33,28,23,29,26,23,99,87,76,30.15,30.00,29.83,10,9,0,10,4,,0.00,8,Snow,320
2013-2-25,35,32,29,28,25,23,92,78,63,30.20,30.17,30.14,10,10,10,10,2,,0.00,8,,182
2013-2-26,35,30,25,26,24,20,80,74,64,30.18,30.02,29.79,10,10,10,24,9,32,0.00,6,,85
2013-2-27,33,32,31,32,30,26,99,90,79,29.78,29.71,29.67,10,8,1,20,14,26,0.00,8,Snow,50
2013-2-28,32,28,23,32,24,15,99,80,62,30.11,29.90,29.72,10,8,2,21,16,29,0.00,7,Snow,11